sensor_id;sensor_type;location;lat;lon;timestamp;temperature;humidity
66086;DHT22;52868;49.758;9.586;2022-12-20T00:00:57;0.60;76.70
66086;DHT22;52868;49.758;9.586;2022-12-20T00:03:23;0.60;77.50
66086;DHT22;52868;49.758;9.586;2022-12-20T00:05:49;0.60;76.90
66086;DHT22;52868;49.758;9.586;2022-12-20T00:08:15;0.60;76.60
66086;DHT22;52868;49.758;9.586;2022-12-20T00:10:42;0.70;76.50
66086;DHT22;52868;49.758;9.586;2022-12-20T00:13:09;0.70;77.00
66086;DHT22;52868;49.758;9.586;2022-12-20T00:15:35;0.70;76.80
66086;DHT22;52868;49.758;9.586;2022-12-20T00:18:01;0.70;76.20
66086;DHT22;52868;49.758;9.586;2022-12-20T00:20:27;0.70;76.20
66086;DHT22;52868;49.758;9.586;2022-12-20T00:22:53;0.70;75.80
66086;DHT22;52868;49.758;9.586;2022-12-20T00:25:19;0.70;75.80
66086;DHT22;52868;49.758;9.586;2022-12-20T00:27:46;0.70;76.30
66086;DHT22;52868;49.758;9.586;2022-12-20T00:30:12;0.70;76.20
66086;DHT22;52868;49.758;9.586;2022-12-20T00:32:38;0.70;76.30
66086;DHT22;52868;49.758;9.586;2022-12-20T00:35:04;0.70;75.70
66086;DHT22;52868;49.758;9.586;2022-12-20T00:37:30;0.70;75.30
66086;DHT22;52868;49.758;9.586;2022-12-20T00:39:56;0.70;76.50
66086;DHT22;52868;49.758;9.586;2022-12-20T00:42:21;0.70;75.50
66086;DHT22;52868;49.758;9.586;2022-12-20T00:44:47;0.70;75.50
66086;DHT22;52868;49.758;9.586;2022-12-20T00:47:12;0.70;75.50
66086;DHT22;52868;49.758;9.586;2022-12-20T00:49:39;0.70;76.50
66086;DHT22;52868;49.758;9.586;2022-12-20T00:52:04;0.70;76.20
66086;DHT22;52868;49.758;9.586;2022-12-20T00:54:30;0.70;76.40
66086;DHT22;52868;49.758;9.586;2022-12-20T00:56:56;0.70;75.80
66086;DHT22;52868;49.758;9.586;2022-12-20T00:59:21;0.70;75.70
66086;DHT22;52868;49.758;9.586;2022-12-20T01:01:47;0.70;76.40
66086;DHT22;52868;49.758;9.586;2022-12-20T01:04:12;0.70;77.50
66086;DHT22;52868;49.758;9.586;2022-12-20T01:06:39;0.70;77.90
66086;DHT22;52868;49.758;9.586;2022-12-20T01:09:04;0.70;76.70
66086;DHT22;52868;49.758;9.586;2022-12-20T01:11:35;0.70;76.10
66086;DHT22;52868;49.758;9.586;2022-12-20T01:14:03;0.70;75.80
66086;DHT22;52868;49.758;9.586;2022-12-20T01:16:33;0.70;75.50
66086;DHT22;52868;49.758;9.586;2022-12-20T01:18:59;0.70;75.60
66086;DHT22;52868;49.758;9.586;2022-12-20T01:21:26;0.80;75.70
66086;DHT22;52868;49.758;9.586;2022-12-20T01:23:53;0.80;75.50
66086;DHT22;52868;49.758;9.586;2022-12-20T01:26:21;0.70;75.20
66086;DHT22;52868;49.758;9.586;2022-12-20T01:28:48;0.80;75.20
66086;DHT22;52868;49.758;9.586;2022-12-20T01:31:16;0.80;76.00
66086;DHT22;52868;49.758;9.586;2022-12-20T01:33:42;0.80;75.40
66086;DHT22;52868;49.758;9.586;2022-12-20T01:36:15;0.80;75.30
66086;DHT22;52868;49.758;9.586;2022-12-20T01:38:41;0.80;75.20
66086;DHT22;52868;49.758;9.586;2022-12-20T01:41:07;0.80;75.10
66086;DHT22;52868;49.758;9.586;2022-12-20T01:44:05;0.80;75.20
66086;DHT22;52868;49.758;9.586;2022-12-20T01:46:32;0.80;75.00
66086;DHT22;52868;49.758;9.586;2022-12-20T01:49:04;0.90;75.10
66086;DHT22;52868;49.758;9.586;2022-12-20T01:51:33;0.90;75.20
66086;DHT22;52868;49.758;9.586;2022-12-20T01:54:20;0.80;75.00
66086;DHT22;52868;49.758;9.586;2022-12-20T01:57:01;0.90;74.70
66086;DHT22;52868;49.758;9.586;2022-12-20T01:59:28;0.80;74.90
66086;DHT22;52868;49.758;9.586;2022-12-20T02:01:58;0.80;75.00
66086;DHT22;52868;49.758;9.586;2022-12-20T02:04:26;0.90;74.90
66086;DHT22;52868;49.758;9.586;2022-12-20T02:06:51;0.90;74.90
66086;DHT22;52868;49.758;9.586;2022-12-20T02:09:17;0.90;74.70
66086;DHT22;52868;49.758;9.586;2022-12-20T02:12:11;0.90;74.80
66086;DHT22;52868;49.758;9.586;2022-12-20T02:14:58;0.90;74.10
66086;DHT22;52868;49.758;9.586;2022-12-20T02:17:40;0.90;74.50
66086;DHT22;52868;49.758;9.586;2022-12-20T02:31:22;0.90;74.60
66086;DHT22;52868;49.758;9.586;2022-12-20T02:33:51;0.90;75.40
66086;DHT22;52868;49.758;9.586;2022-12-20T02:36:18;0.90;75.40
66086;DHT22;52868;49.758;9.586;2022-12-20T02:38:44;0.90;75.10
66086;DHT22;52868;49.758;9.586;2022-12-20T02:41:22;0.90;76.70
66086;DHT22;52868;49.758;9.586;2022-12-20T02:43:54;0.90;75.30
66086;DHT22;52868;49.758;9.586;2022-12-20T02:46:39;1.00;75.10
66086;DHT22;52868;49.758;9.586;2022-12-20T02:49:10;0.90;75.10
66086;DHT22;52868;49.758;9.586;2022-12-20T02:51:39;0.90;75.60
66086;DHT22;52868;49.758;9.586;2022-12-20T02:54:05;0.90;74.90
66086;DHT22;52868;49.758;9.586;2022-12-20T02:56:41;0.90;74.80
66086;DHT22;52868;49.758;9.586;2022-12-20T03:01:55;1.00;74.70
66086;DHT22;52868;49.758;9.586;2022-12-20T03:04:30;1.00;74.80
66086;DHT22;52868;49.758;9.586;2022-12-20T03:07:08;1.00;74.30
66086;DHT22;52868;49.758;9.586;2022-12-20T03:09:38;0.90;74.60
66086;DHT22;52868;49.758;9.586;2022-12-20T03:12:05;1.00;75.00
66086;DHT22;52868;49.758;9.586;2022-12-20T03:14:31;1.00;76.90
66086;DHT22;52868;49.758;9.586;2022-12-20T03:16:57;1.00;76.80
66086;DHT22;52868;49.758;9.586;2022-12-20T03:19:23;1.00;75.70
66086;DHT22;52868;49.758;9.586;2022-12-20T03:21:49;1.00;75.30
66086;DHT22;52868;49.758;9.586;2022-12-20T03:24:14;1.00;75.10
66086;DHT22;52868;49.758;9.586;2022-12-20T03:26:40;1.00;75.40
66086;DHT22;52868;49.758;9.586;2022-12-20T03:29:06;1.00;75.40
66086;DHT22;52868;49.758;9.586;2022-12-20T03:31:32;1.00;75.00
66086;DHT22;52868;49.758;9.586;2022-12-20T03:33:58;1.00;74.90
66086;DHT22;52868;49.758;9.586;2022-12-20T03:36:24;1.00;74.60
66086;DHT22;52868;49.758;9.586;2022-12-20T03:38:50;1.00;74.60
66086;DHT22;52868;49.758;9.586;2022-12-20T03:41:17;1.00;74.90
66086;DHT22;52868;49.758;9.586;2022-12-20T03:43:42;1.00;74.20
66086;DHT22;52868;49.758;9.586;2022-12-20T03:46:08;1.00;74.00
66086;DHT22;52868;49.758;9.586;2022-12-20T03:48:33;1.00;74.20
66086;DHT22;52868;49.758;9.586;2022-12-20T03:50:59;1.00;74.30
66086;DHT22;52868;49.758;9.586;2022-12-20T03:53:25;1.10;74.50
66086;DHT22;52868;49.758;9.586;2022-12-20T03:55:50;1.00;74.60
66086;DHT22;52868;49.758;9.586;2022-12-20T03:58:16;1.00;74.50
66086;DHT22;52868;49.758;9.586;2022-12-20T04:00:41;1.00;74.40
66086;DHT22;52868;49.758;9.586;2022-12-20T04:03:07;1.00;74.30
66086;DHT22;52868;49.758;9.586;2022-12-20T04:05:32;1.00;74.50
66086;DHT22;52868;49.758;9.586;2022-12-20T04:07:58;1.00;74.60
66086;DHT22;52868;49.758;9.586;2022-12-20T04:10:24;1.00;74.60
66086;DHT22;52868;49.758;9.586;2022-12-20T04:12:50;1.00;74.30
66086;DHT22;52868;49.758;9.586;2022-12-20T04:15:16;1.00;75.00
66086;DHT22;52868;49.758;9.586;2022-12-20T04:17:41;1.10;76.60
66086;DHT22;52868;49.758;9.586;2022-12-20T04:20:12;1.10;74.80
66086;DHT22;52868;49.758;9.586;2022-12-20T04:22:48;1.00;74.70
66086;DHT22;52868;49.758;9.586;2022-12-20T04:25:15;1.00;74.60
66086;DHT22;52868;49.758;9.586;2022-12-20T04:27:41;1.10;74.70
66086;DHT22;52868;49.758;9.586;2022-12-20T04:30:11;1.10;73.90
66086;DHT22;52868;49.758;9.586;2022-12-20T04:32:37;1.10;74.10
66086;DHT22;52868;49.758;9.586;2022-12-20T04:35:03;1.10;74.50
66086;DHT22;52868;49.758;9.586;2022-12-20T04:37:30;1.10;74.50
66086;DHT22;52868;49.758;9.586;2022-12-20T04:39:56;1.10;74.40
66086;DHT22;52868;49.758;9.586;2022-12-20T04:42:23;1.10;74.40
66086;DHT22;52868;49.758;9.586;2022-12-20T04:44:49;1.10;73.90
66086;DHT22;52868;49.758;9.586;2022-12-20T04:47:15;1.10;74.20
66086;DHT22;52868;49.758;9.586;2022-12-20T04:49:40;1.20;77.10
66086;DHT22;52868;49.758;9.586;2022-12-20T04:52:06;1.20;75.20
66086;DHT22;52868;49.758;9.586;2022-12-20T04:54:50;1.10;74.50
66086;DHT22;52868;49.758;9.586;2022-12-20T04:57:16;1.10;74.40
66086;DHT22;52868;49.758;9.586;2022-12-20T04:59:41;1.10;74.60
66086;DHT22;52868;49.758;9.586;2022-12-20T05:02:07;1.10;74.30
66086;DHT22;52868;49.758;9.586;2022-12-20T05:04:32;1.10;73.70
66086;DHT22;52868;49.758;9.586;2022-12-20T05:06:58;1.10;73.90
66086;DHT22;52868;49.758;9.586;2022-12-20T05:09:24;1.10;74.00
66086;DHT22;52868;49.758;9.586;2022-12-20T05:11:49;1.10;74.20
66086;DHT22;52868;49.758;9.586;2022-12-20T05:14:15;1.10;74.20
66086;DHT22;52868;49.758;9.586;2022-12-20T05:16:40;1.10;74.00
66086;DHT22;52868;49.758;9.586;2022-12-20T05:19:06;1.10;74.00
66086;DHT22;52868;49.758;9.586;2022-12-20T05:21:32;1.10;74.60
66086;DHT22;52868;49.758;9.586;2022-12-20T05:24:16;1.10;74.10
66086;DHT22;52868;49.758;9.586;2022-12-20T05:27:00;1.20;74.00
66086;DHT22;52868;49.758;9.586;2022-12-20T05:29:26;1.10;73.90
66086;DHT22;52868;49.758;9.586;2022-12-20T05:31:52;1.20;74.20
66086;DHT22;52868;49.758;9.586;2022-12-20T05:34:18;1.10;74.20
66086;DHT22;52868;49.758;9.586;2022-12-20T05:36:43;1.20;74.00
66086;DHT22;52868;49.758;9.586;2022-12-20T05:39:09;1.20;74.00
66086;DHT22;52868;49.758;9.586;2022-12-20T05:41:36;1.10;73.90
66086;DHT22;52868;49.758;9.586;2022-12-20T05:44:02;1.10;73.80
66086;DHT22;52868;49.758;9.586;2022-12-20T05:46:28;1.10;74.10
66086;DHT22;52868;49.758;9.586;2022-12-20T05:48:54;1.20;73.70
66086;DHT22;52868;49.758;9.586;2022-12-20T05:51:19;1.10;74.10
66086;DHT22;52868;49.758;9.586;2022-12-20T05:53:45;1.10;74.00
66086;DHT22;52868;49.758;9.586;2022-12-20T05:56:11;1.20;74.10
66086;DHT22;52868;49.758;9.586;2022-12-20T05:58:36;1.20;73.60
66086;DHT22;52868;49.758;9.586;2022-12-20T06:01:05;1.20;73.60
66086;DHT22;52868;49.758;9.586;2022-12-20T06:03:31;1.10;73.70
66086;DHT22;52868;49.758;9.586;2022-12-20T06:05:57;1.20;73.80
66086;DHT22;52868;49.758;9.586;2022-12-20T06:08:22;1.20;74.00
66086;DHT22;52868;49.758;9.586;2022-12-20T06:10:49;1.20;73.40
66086;DHT22;52868;49.758;9.586;2022-12-20T06:13:15;1.20;73.80
66086;DHT22;52868;49.758;9.586;2022-12-20T06:15:41;1.20;73.70
66086;DHT22;52868;49.758;9.586;2022-12-20T06:18:07;1.20;73.90
66086;DHT22;52868;49.758;9.586;2022-12-20T06:20:34;1.20;73.70
66086;DHT22;52868;49.758;9.586;2022-12-20T06:23:00;1.20;73.50
66086;DHT22;52868;49.758;9.586;2022-12-20T06:25:27;1.20;73.70
66086;DHT22;52868;49.758;9.586;2022-12-20T06:27:53;1.10;73.60
66086;DHT22;52868;49.758;9.586;2022-12-20T06:30:19;1.20;73.80
66086;DHT22;52868;49.758;9.586;2022-12-20T06:32:51;1.20;73.50
66086;DHT22;52868;49.758;9.586;2022-12-20T06:35:16;1.20;73.40
66086;DHT22;52868;49.758;9.586;2022-12-20T06:37:42;1.20;73.90
66086;DHT22;52868;49.758;9.586;2022-12-20T06:40:09;1.20;73.30
66086;DHT22;52868;49.758;9.586;2022-12-20T06:42:36;1.20;73.50
66086;DHT22;52868;49.758;9.586;2022-12-20T06:45:02;1.20;73.50
66086;DHT22;52868;49.758;9.586;2022-12-20T06:47:28;1.20;73.50
66086;DHT22;52868;49.758;9.586;2022-12-20T06:49:53;1.20;73.30
66086;DHT22;52868;49.758;9.586;2022-12-20T06:52:19;1.20;73.40
66086;DHT22;52868;49.758;9.586;2022-12-20T06:54:45;1.20;73.20
66086;DHT22;52868;49.758;9.586;2022-12-20T06:57:10;1.20;73.40
66086;DHT22;52868;49.758;9.586;2022-12-20T06:59:36;1.20;73.10
66086;DHT22;52868;49.758;9.586;2022-12-20T07:02:01;1.20;72.80
66086;DHT22;52868;49.758;9.586;2022-12-20T07:04:27;1.20;72.70
66086;DHT22;52868;49.758;9.586;2022-12-20T07:06:53;1.20;72.80
66086;DHT22;52868;49.758;9.586;2022-12-20T07:09:18;1.20;73.00
66086;DHT22;52868;49.758;9.586;2022-12-20T07:11:44;1.20;73.00
66086;DHT22;52868;49.758;9.586;2022-12-20T07:14:10;1.20;73.60
66086;DHT22;52868;49.758;9.586;2022-12-20T07:16:36;1.20;73.00
66086;DHT22;52868;49.758;9.586;2022-12-20T07:19:02;1.20;72.80
66086;DHT22;52868;49.758;9.586;2022-12-20T07:21:27;1.20;73.00
66086;DHT22;52868;49.758;9.586;2022-12-20T07:23:56;1.20;73.30
66086;DHT22;52868;49.758;9.586;2022-12-20T07:26:22;1.20;73.40
66086;DHT22;52868;49.758;9.586;2022-12-20T07:28:48;1.20;73.30
66086;DHT22;52868;49.758;9.586;2022-12-20T07:31:13;1.20;73.50
66086;DHT22;52868;49.758;9.586;2022-12-20T07:33:39;1.20;73.30
66086;DHT22;52868;49.758;9.586;2022-12-20T07:36:07;1.20;73.10
66086;DHT22;52868;49.758;9.586;2022-12-20T07:38:34;1.20;73.20
66086;DHT22;52868;49.758;9.586;2022-12-20T07:41:00;1.20;73.20
66086;DHT22;52868;49.758;9.586;2022-12-20T07:43:30;1.20;73.50
66086;DHT22;52868;49.758;9.586;2022-12-20T07:45:56;1.20;73.40
66086;DHT22;52868;49.758;9.586;2022-12-20T07:48:22;1.20;73.30
66086;DHT22;52868;49.758;9.586;2022-12-20T07:50:51;1.20;73.50
66086;DHT22;52868;49.758;9.586;2022-12-20T07:53:18;1.20;73.40
66086;DHT22;52868;49.758;9.586;2022-12-20T07:55:44;1.20;72.80
66086;DHT22;52868;49.758;9.586;2022-12-20T07:58:11;1.20;72.70
66086;DHT22;52868;49.758;9.586;2022-12-20T08:00:37;1.20;72.50
66086;DHT22;52868;49.758;9.586;2022-12-20T08:03:10;1.20;72.60
66086;DHT22;52868;49.758;9.586;2022-12-20T08:05:40;1.20;73.00
66086;DHT22;52868;49.758;9.586;2022-12-20T08:08:08;1.20;73.00
66086;DHT22;52868;49.758;9.586;2022-12-20T08:10:36;1.20;72.60
66086;DHT22;52868;49.758;9.586;2022-12-20T08:13:03;1.20;72.70
66086;DHT22;52868;49.758;9.586;2022-12-20T08:15:29;1.20;72.80
66086;DHT22;52868;49.758;9.586;2022-12-20T08:17:55;1.20;72.70
66086;DHT22;52868;49.758;9.586;2022-12-20T08:20:20;1.20;72.60
66086;DHT22;52868;49.758;9.586;2022-12-20T08:22:46;1.20;72.40
66086;DHT22;52868;49.758;9.586;2022-12-20T08:25:12;1.20;72.50
66086;DHT22;52868;49.758;9.586;2022-12-20T08:27:37;1.20;72.60
66086;DHT22;52868;49.758;9.586;2022-12-20T08:30:04;1.30;72.70
66086;DHT22;52868;49.758;9.586;2022-12-20T08:32:30;1.30;72.50
66086;DHT22;52868;49.758;9.586;2022-12-20T08:34:56;1.30;72.70
66086;DHT22;52868;49.758;9.586;2022-12-20T08:37:21;1.30;72.90
66086;DHT22;52868;49.758;9.586;2022-12-20T08:39:47;1.30;72.70
66086;DHT22;52868;49.758;9.586;2022-12-20T08:42:12;1.30;72.60
66086;DHT22;52868;49.758;9.586;2022-12-20T08:44:38;1.30;72.80
66086;DHT22;52868;49.758;9.586;2022-12-20T08:47:04;1.30;72.90
66086;DHT22;52868;49.758;9.586;2022-12-20T08:49:29;1.30;72.70
66086;DHT22;52868;49.758;9.586;2022-12-20T08:51:58;1.30;72.60
66086;DHT22;52868;49.758;9.586;2022-12-20T08:54:24;1.30;73.10
66086;DHT22;52868;49.758;9.586;2022-12-20T08:56:49;1.30;73.20
66086;DHT22;52868;49.758;9.586;2022-12-20T08:59:15;1.30;73.20
66086;DHT22;52868;49.758;9.586;2022-12-20T09:01:41;1.30;72.50
66086;DHT22;52868;49.758;9.586;2022-12-20T09:04:08;1.30;73.10
66086;DHT22;52868;49.758;9.586;2022-12-20T09:06:35;1.30;73.10
66086;DHT22;52868;49.758;9.586;2022-12-20T09:09:01;1.30;72.60
66086;DHT22;52868;49.758;9.586;2022-12-20T09:11:27;1.30;72.30
66086;DHT22;52868;49.758;9.586;2022-12-20T09:13:55;1.30;72.30
66086;DHT22;52868;49.758;9.586;2022-12-20T09:16:24;1.30;72.40
66086;DHT22;52868;49.758;9.586;2022-12-20T09:18:51;1.30;72.70
66086;DHT22;52868;49.758;9.586;2022-12-20T09:21:17;1.40;72.70
66086;DHT22;52868;49.758;9.586;2022-12-20T09:23:43;1.40;72.90
66086;DHT22;52868;49.758;9.586;2022-12-20T09:26:11;1.40;72.70
66086;DHT22;52868;49.758;9.586;2022-12-20T09:28:37;1.40;72.70
66086;DHT22;52868;49.758;9.586;2022-12-20T09:31:05;1.40;73.10
66086;DHT22;52868;49.758;9.586;2022-12-20T09:33:31;1.40;73.10
66086;DHT22;52868;49.758;9.586;2022-12-20T09:35:58;1.40;73.40
66086;DHT22;52868;49.758;9.586;2022-12-20T09:38:25;1.40;73.40
66086;DHT22;52868;49.758;9.586;2022-12-20T09:40:53;1.40;73.10
66086;DHT22;52868;49.758;9.586;2022-12-20T09:43:20;1.40;72.70
66086;DHT22;52868;49.758;9.586;2022-12-20T09:45:50;1.50;74.40
66086;DHT22;52868;49.758;9.586;2022-12-20T09:53:40;1.40;73.20
66086;DHT22;52868;49.758;9.586;2022-12-20T09:56:16;1.50;73.30
66086;DHT22;52868;49.758;9.586;2022-12-20T10:01:31;1.60;73.80
66086;DHT22;52868;49.758;9.586;2022-12-20T10:04:00;1.60;73.80
66086;DHT22;52868;49.758;9.586;2022-12-20T10:09:04;1.60;74.10
66086;DHT22;52868;49.758;9.586;2022-12-20T10:15:00;1.60;74.30
66086;DHT22;52868;49.758;9.586;2022-12-20T10:18:12;1.60;74.10
66086;DHT22;52868;49.758;9.586;2022-12-20T10:23:41;1.50;73.40
66086;DHT22;52868;49.758;9.586;2022-12-20T10:26:09;1.50;73.30
66086;DHT22;52868;49.758;9.586;2022-12-20T10:28:39;1.60;73.40
66086;DHT22;52868;49.758;9.586;2022-12-20T10:31:12;1.60;73.70
66086;DHT22;52868;49.758;9.586;2022-12-20T10:33:39;1.60;73.50
66086;DHT22;52868;49.758;9.586;2022-12-20T10:36:32;1.60;73.20
66086;DHT22;52868;49.758;9.586;2022-12-20T10:39:04;1.60;73.50
66086;DHT22;52868;49.758;9.586;2022-12-20T10:41:49;1.60;73.40
66086;DHT22;52868;49.758;9.586;2022-12-20T10:44:26;1.50;73.20
66086;DHT22;52868;49.758;9.586;2022-12-20T10:46:53;1.60;73.20
66086;DHT22;52868;49.758;9.586;2022-12-20T10:52:07;1.60;73.30
66086;DHT22;52868;49.758;9.586;2022-12-20T10:54:41;1.70;73.30
66086;DHT22;52868;49.758;9.586;2022-12-20T10:57:26;1.60;73.20
66086;DHT22;52868;49.758;9.586;2022-12-20T10:59:58;1.70;73.70
66086;DHT22;52868;49.758;9.586;2022-12-20T11:02:31;1.70;73.50
66086;DHT22;52868;49.758;9.586;2022-12-20T11:05:02;1.70;73.50
66086;DHT22;52868;49.758;9.586;2022-12-20T11:07:32;1.70;73.50
66086;DHT22;52868;49.758;9.586;2022-12-20T11:10:00;1.70;73.40
66086;DHT22;52868;49.758;9.586;2022-12-20T11:12:26;1.70;73.60
66086;DHT22;52868;49.758;9.586;2022-12-20T11:15:09;1.70;73.60
66086;DHT22;52868;49.758;9.586;2022-12-20T11:17:43;1.70;73.40
66086;DHT22;52868;49.758;9.586;2022-12-20T11:20:44;1.70;73.80
66086;DHT22;52868;49.758;9.586;2022-12-20T11:25:59;1.70;73.30
66086;DHT22;52868;49.758;9.586;2022-12-20T11:39:46;1.70;73.20
66086;DHT22;52868;49.758;9.586;2022-12-20T11:42:27;1.70;73.40
66086;DHT22;52868;49.758;9.586;2022-12-20T11:50:30;1.70;73.60
66086;DHT22;52868;49.758;9.586;2022-12-20T11:53:07;1.80;73.90
66086;DHT22;52868;49.758;9.586;2022-12-20T11:55:38;1.80;73.70
66086;DHT22;52868;49.758;9.586;2022-12-20T11:58:13;1.70;73.60
66086;DHT22;52868;49.758;9.586;2022-12-20T12:00:45;1.80;74.50
66086;DHT22;52868;49.758;9.586;2022-12-20T12:06:10;1.80;74.80
66086;DHT22;52868;49.758;9.586;2022-12-20T12:11:36;1.90;74.10
66086;DHT22;52868;49.758;9.586;2022-12-20T12:14:05;1.90;75.20
66086;DHT22;52868;49.758;9.586;2022-12-20T12:16:36;1.80;73.70
66086;DHT22;52868;49.758;9.586;2022-12-20T12:19:08;1.80;74.40
66086;DHT22;52868;49.758;9.586;2022-12-20T12:21:47;1.80;74.00
66086;DHT22;52868;49.758;9.586;2022-12-20T12:24:26;1.80;73.40
66086;DHT22;52868;49.758;9.586;2022-12-20T12:26:54;1.70;73.60
66086;DHT22;52868;49.758;9.586;2022-12-20T12:29:28;1.80;73.80
66086;DHT22;52868;49.758;9.586;2022-12-20T12:32:13;1.80;73.60
66086;DHT22;52868;49.758;9.586;2022-12-20T12:35:02;1.80;74.20
66086;DHT22;52868;49.758;9.586;2022-12-20T12:38:14;1.80;73.90
66086;DHT22;52868;49.758;9.586;2022-12-20T12:40:46;1.80;74.00
66086;DHT22;52868;49.758;9.586;2022-12-20T12:46:12;1.90;73.90
66086;DHT22;52868;49.758;9.586;2022-12-20T12:48:50;1.80;73.90
66086;DHT22;52868;49.758;9.586;2022-12-20T12:51:36;1.90;73.70
66086;DHT22;52868;49.758;9.586;2022-12-20T12:56:43;1.90;73.40
66086;DHT22;52868;49.758;9.586;2022-12-20T13:09:57;1.90;74.10
66086;DHT22;52868;49.758;9.586;2022-12-20T13:19:54;1.90;74.30
66086;DHT22;52868;49.758;9.586;2022-12-20T13:22:24;1.90;74.30
66086;DHT22;52868;49.758;9.586;2022-12-20T13:24:58;1.90;74.10
66086;DHT22;52868;49.758;9.586;2022-12-20T13:27:30;2.00;74.20
66086;DHT22;52868;49.758;9.586;2022-12-20T13:40:25;2.00;74.40
66086;DHT22;52868;49.758;9.586;2022-12-20T13:42:56;1.90;74.10
66086;DHT22;52868;49.758;9.586;2022-12-20T13:45:23;2.00;74.40
66086;DHT22;52868;49.758;9.586;2022-12-20T13:47:54;2.00;74.20
66086;DHT22;52868;49.758;9.586;2022-12-20T13:53:20;2.00;74.10
66086;DHT22;52868;49.758;9.586;2022-12-20T13:55:46;2.00;73.80
66086;DHT22;52868;49.758;9.586;2022-12-20T13:58:22;2.00;74.30
66086;DHT22;52868;49.758;9.586;2022-12-20T14:00:49;2.00;74.20
66086;DHT22;52868;49.758;9.586;2022-12-20T14:05:44;2.00;74.20
66086;DHT22;52868;49.758;9.586;2022-12-20T14:08:16;2.00;74.60
66086;DHT22;52868;49.758;9.586;2022-12-20T14:10:42;2.10;74.70
66086;DHT22;52868;49.758;9.586;2022-12-20T14:13:37;2.00;74.20
66086;DHT22;52868;49.758;9.586;2022-12-20T14:16:17;2.00;74.20
66086;DHT22;52868;49.758;9.586;2022-12-20T14:21:23;2.00;74.00
66086;DHT22;52868;49.758;9.586;2022-12-20T14:23:52;2.00;73.90
66086;DHT22;52868;49.758;9.586;2022-12-20T14:26:26;2.00;73.90
66086;DHT22;52868;49.758;9.586;2022-12-20T14:28:55;2.10;74.40
66086;DHT22;52868;49.758;9.586;2022-12-20T14:33:47;2.10;74.40
66086;DHT22;52868;49.758;9.586;2022-12-20T14:38:43;2.10;74.70
66086;DHT22;52868;49.758;9.586;2022-12-20T14:41:30;2.00;74.50
66086;DHT22;52868;49.758;9.586;2022-12-20T14:43:58;2.10;74.70
66086;DHT22;52868;49.758;9.586;2022-12-20T14:46:25;2.10;74.40
66086;DHT22;52868;49.758;9.586;2022-12-20T14:49:20;2.00;74.00
66086;DHT22;52868;49.758;9.586;2022-12-20T14:51:47;2.00;74.30
66086;DHT22;52868;49.758;9.586;2022-12-20T14:54:26;2.00;74.10
66086;DHT22;52868;49.758;9.586;2022-12-20T14:56:53;2.10;74.30
66086;DHT22;52868;49.758;9.586;2022-12-20T14:59:27;2.10;74.70
66086;DHT22;52868;49.758;9.586;2022-12-20T15:01:54;2.20;74.60
66086;DHT22;52868;49.758;9.586;2022-12-20T15:04:30;2.20;74.40
66086;DHT22;52868;49.758;9.586;2022-12-20T15:06:57;2.10;74.50
66086;DHT22;52868;49.758;9.586;2022-12-20T15:09:23;2.10;74.40
66086;DHT22;52868;49.758;9.586;2022-12-20T15:11:49;2.20;74.60
66086;DHT22;52868;49.758;9.586;2022-12-20T15:14:36;2.20;74.40
66086;DHT22;52868;49.758;9.586;2022-12-20T15:17:08;2.10;74.30
66086;DHT22;52868;49.758;9.586;2022-12-20T15:19:35;2.10;74.20
66086;DHT22;52868;49.758;9.586;2022-12-20T15:22:00;2.10;76.10
66086;DHT22;52868;49.758;9.586;2022-12-20T15:24:27;2.20;76.20
66086;DHT22;52868;49.758;9.586;2022-12-20T15:26:54;2.10;74.60
66086;DHT22;52868;49.758;9.586;2022-12-20T15:29:26;2.10;74.70
66086;DHT22;52868;49.758;9.586;2022-12-20T15:32:16;2.10;74.70
66086;DHT22;52868;49.758;9.586;2022-12-20T15:34:43;2.10;74.90
66086;DHT22;52868;49.758;9.586;2022-12-20T15:37:14;2.20;74.40
66086;DHT22;52868;49.758;9.586;2022-12-20T15:39:40;2.10;74.90
66086;DHT22;52868;49.758;9.586;2022-12-20T15:42:08;2.10;76.30
66086;DHT22;52868;49.758;9.586;2022-12-20T15:44:37;2.10;76.00
66086;DHT22;52868;49.758;9.586;2022-12-20T15:47:03;2.10;75.60
66086;DHT22;52868;49.758;9.586;2022-12-20T15:49:30;2.20;75.80
66086;DHT22;52868;49.758;9.586;2022-12-20T15:51:57;2.10;74.90
66086;DHT22;52868;49.758;9.586;2022-12-20T15:54:24;2.10;74.80
66086;DHT22;52868;49.758;9.586;2022-12-20T15:56:55;2.20;74.90
66086;DHT22;52868;49.758;9.586;2022-12-20T15:59:21;2.10;74.70
66086;DHT22;52868;49.758;9.586;2022-12-20T16:01:47;2.10;74.50
66086;DHT22;52868;49.758;9.586;2022-12-20T16:04:15;2.10;75.00
66086;DHT22;52868;49.758;9.586;2022-12-20T16:06:42;2.20;76.30
66086;DHT22;52868;49.758;9.586;2022-12-20T16:09:08;2.20;76.60
66086;DHT22;52868;49.758;9.586;2022-12-20T16:11:34;2.20;76.60
66086;DHT22;52868;49.758;9.586;2022-12-20T16:14:00;2.20;77.00
66086;DHT22;52868;49.758;9.586;2022-12-20T16:16:28;2.10;75.90
66086;DHT22;52868;49.758;9.586;2022-12-20T16:18:54;2.20;75.80
66086;DHT22;52868;49.758;9.586;2022-12-20T16:21:25;2.10;75.80
66086;DHT22;52868;49.758;9.586;2022-12-20T16:23:52;2.20;75.30
66086;DHT22;52868;49.758;9.586;2022-12-20T16:26:21;2.20;75.70
66086;DHT22;52868;49.758;9.586;2022-12-20T16:28:48;2.20;76.70
66086;DHT22;52868;49.758;9.586;2022-12-20T16:31:27;2.20;76.80
66086;DHT22;52868;49.758;9.586;2022-12-20T16:33:53;2.20;75.80
66086;DHT22;52868;49.758;9.586;2022-12-20T16:36:20;2.10;75.30
66086;DHT22;52868;49.758;9.586;2022-12-20T16:38:47;2.20;75.60
66086;DHT22;52868;49.758;9.586;2022-12-20T16:41:24;2.20;75.40
66086;DHT22;52868;49.758;9.586;2022-12-20T16:43:50;2.10;75.20
66086;DHT22;52868;49.758;9.586;2022-12-20T16:46:18;2.10;75.60
66086;DHT22;52868;49.758;9.586;2022-12-20T16:48:44;2.20;76.80
66086;DHT22;52868;49.758;9.586;2022-12-20T16:51:32;2.20;76.60
66086;DHT22;52868;49.758;9.586;2022-12-20T16:54:03;2.20;77.60
66086;DHT22;52868;49.758;9.586;2022-12-20T16:56:30;2.20;76.80
66086;DHT22;52868;49.758;9.586;2022-12-20T16:58:56;2.20;75.90
66086;DHT22;52868;49.758;9.586;2022-12-20T17:01:28;2.20;75.80
66086;DHT22;52868;49.758;9.586;2022-12-20T17:03:54;2.20;75.40
66086;DHT22;52868;49.758;9.586;2022-12-20T17:06:20;2.20;75.30
66086;DHT22;52868;49.758;9.586;2022-12-20T17:08:46;2.20;75.80
66086;DHT22;52868;49.758;9.586;2022-12-20T17:11:21;2.20;75.30
66086;DHT22;52868;49.758;9.586;2022-12-20T17:13:48;2.20;75.10
66086;DHT22;52868;49.758;9.586;2022-12-20T17:16:15;2.20;75.20
66086;DHT22;52868;49.758;9.586;2022-12-20T17:18:46;2.20;75.20
66086;DHT22;52868;49.758;9.586;2022-12-20T17:23:44;2.20;75.60
66086;DHT22;52868;49.758;9.586;2022-12-20T17:26:30;2.20;75.40
66086;DHT22;52868;49.758;9.586;2022-12-20T17:28:57;2.20;75.20
66086;DHT22;52868;49.758;9.586;2022-12-20T17:31:26;2.20;75.10
66086;DHT22;52868;49.758;9.586;2022-12-20T17:33:52;2.20;75.50
66086;DHT22;52868;49.758;9.586;2022-12-20T17:36:18;2.20;75.20
66086;DHT22;52868;49.758;9.586;2022-12-20T17:38:44;2.20;77.20
66086;DHT22;52868;49.758;9.586;2022-12-20T17:41:40;2.20;77.40
66086;DHT22;52868;49.758;9.586;2022-12-20T17:44:18;2.20;77.70
66086;DHT22;52868;49.758;9.586;2022-12-20T17:46:44;2.20;76.80